sensor_id;sensor_type;location;lat;lon;timestamp;temperature;humidity
35497;DHT22;21609;49.298;6.844;2023-03-19T00:01:06;18.70;50.30
35497;DHT22;21609;49.298;6.844;2023-03-19T00:03:33;18.70;50.30
35497;DHT22;21609;49.298;6.844;2023-03-19T00:05:58;18.70;50.30
35497;DHT22;21609;49.298;6.844;2023-03-19T00:08:24;18.70;50.30
35497;DHT22;21609;49.298;6.844;2023-03-19T00:10:50;18.70;50.30
35497;DHT22;21609;49.298;6.844;2023-03-19T00:13:16;18.60;50.30
35497;DHT22;21609;49.298;6.844;2023-03-19T00:15:41;18.70;50.40
35497;DHT22;21609;49.298;6.844;2023-03-19T00:18:07;18.60;50.30
35497;DHT22;21609;49.298;6.844;2023-03-19T00:20:33;18.70;50.40
35497;DHT22;21609;49.298;6.844;2023-03-19T00:22:59;18.60;50.40
35497;DHT22;21609;49.298;6.844;2023-03-19T00:25:25;18.60;50.40
35497;DHT22;21609;49.298;6.844;2023-03-19T00:27:50;18.60;50.40
35497;DHT22;21609;49.298;6.844;2023-03-19T00:30:18;18.60;50.40
35497;DHT22;21609;49.298;6.844;2023-03-19T00:32:44;18.60;50.40
35497;DHT22;21609;49.298;6.844;2023-03-19T00:35:09;18.60;50.40
35497;DHT22;21609;49.298;6.844;2023-03-19T00:37:35;18.60;50.40
35497;DHT22;21609;49.298;6.844;2023-03-19T00:40:02;18.60;50.40
35497;DHT22;21609;49.298;6.844;2023-03-19T00:42:29;18.60;50.50
35497;DHT22;21609;49.298;6.844;2023-03-19T00:44:54;18.60;50.40
35497;DHT22;21609;49.298;6.844;2023-03-19T00:47:21;18.60;50.50
35497;DHT22;21609;49.298;6.844;2023-03-19T00:49:47;18.60;50.50
35497;DHT22;21609;49.298;6.844;2023-03-19T00:52:13;18.60;50.50
35497;DHT22;21609;49.298;6.844;2023-03-19T00:54:38;18.60;50.50
35497;DHT22;21609;49.298;6.844;2023-03-19T00:57:04;18.60;50.50
35497;DHT22;21609;49.298;6.844;2023-03-19T00:59:30;18.60;50.50
35497;DHT22;21609;49.298;6.844;2023-03-19T01:01:55;18.60;50.50
35497;DHT22;21609;49.298;6.844;2023-03-19T01:04:21;18.50;50.50
35497;DHT22;21609;49.298;6.844;2023-03-19T01:06:47;18.50;50.50
35497;DHT22;21609;49.298;6.844;2023-03-19T01:09:13;18.50;50.50
35497;DHT22;21609;49.298;6.844;2023-03-19T01:11:38;18.50;50.50
35497;DHT22;21609;49.298;6.844;2023-03-19T01:14:04;18.50;50.50
35497;DHT22;21609;49.298;6.844;2023-03-19T01:16:30;18.50;50.50
35497;DHT22;21609;49.298;6.844;2023-03-19T01:18:56;18.50;50.50
35497;DHT22;21609;49.298;6.844;2023-03-19T01:21:22;18.50;50.50
35497;DHT22;21609;49.298;6.844;2023-03-19T01:23:48;18.50;50.60
35497;DHT22;21609;49.298;6.844;2023-03-19T01:26:16;18.50;50.50
35497;DHT22;21609;49.298;6.844;2023-03-19T01:28:42;18.40;50.50
35497;DHT22;21609;49.298;6.844;2023-03-19T01:31:08;18.50;50.60
35497;DHT22;21609;49.298;6.844;2023-03-19T01:33:34;18.50;50.60
35497;DHT22;21609;49.298;6.844;2023-03-19T01:36:00;18.50;50.60
35497;DHT22;21609;49.298;6.844;2023-03-19T01:38:30;18.50;50.60
35497;DHT22;21609;49.298;6.844;2023-03-19T01:40:55;18.50;50.60
35497;DHT22;21609;49.298;6.844;2023-03-19T01:43:27;18.50;50.60
35497;DHT22;21609;49.298;6.844;2023-03-19T01:45:59;18.40;50.50
35497;DHT22;21609;49.298;6.844;2023-03-19T01:48:48;18.40;50.60
35497;DHT22;21609;49.298;6.844;2023-03-19T01:51:17;18.40;50.70
35497;DHT22;21609;49.298;6.844;2023-03-19T01:53:49;18.40;50.60
35497;DHT22;21609;49.298;6.844;2023-03-19T01:56:31;18.40;50.60
35497;DHT22;21609;49.298;6.844;2023-03-19T01:59:02;18.40;50.60
35497;DHT22;21609;49.298;6.844;2023-03-19T02:01:28;18.40;50.60
35497;DHT22;21609;49.298;6.844;2023-03-19T02:03:57;18.40;50.80
35497;DHT22;21609;49.298;6.844;2023-03-19T02:06:24;18.40;50.70
35497;DHT22;21609;49.298;6.844;2023-03-19T02:08:50;18.40;50.70
35497;DHT22;21609;49.298;6.844;2023-03-19T02:11:17;18.30;50.60
35497;DHT22;21609;49.298;6.844;2023-03-19T02:13:43;18.40;50.70
35497;DHT22;21609;49.298;6.844;2023-03-19T02:16:09;18.30;50.60
35497;DHT22;21609;49.298;6.844;2023-03-19T02:18:35;18.30;50.60
35497;DHT22;21609;49.298;6.844;2023-03-19T02:21:06;18.30;50.60
35497;DHT22;21609;49.298;6.844;2023-03-19T02:26:18;18.40;51.00
35497;DHT22;21609;49.298;6.844;2023-03-19T02:28:46;18.30;50.80
35497;DHT22;21609;49.298;6.844;2023-03-19T02:31:14;18.30;50.70
35497;DHT22;21609;49.298;6.844;2023-03-19T02:33:40;18.30;50.70
35497;DHT22;21609;49.298;6.844;2023-03-19T02:36:10;18.30;50.70
35497;DHT22;21609;49.298;6.844;2023-03-19T02:38:39;18.30;50.70
35497;DHT22;21609;49.298;6.844;2023-03-19T02:41:08;18.30;50.80
35497;DHT22;21609;49.298;6.844;2023-03-19T02:43:37;18.30;50.80
35497;DHT22;21609;49.298;6.844;2023-03-19T02:46:06;18.30;50.70
35497;DHT22;21609;49.298;6.844;2023-03-19T02:48:32;18.30;50.70
35497;DHT22;21609;49.298;6.844;2023-03-19T02:50:59;18.30;50.80
35497;DHT22;21609;49.298;6.844;2023-03-19T02:53:24;18.30;50.80
35497;DHT22;21609;49.298;6.844;2023-03-19T02:55:50;18.20;50.70
35497;DHT22;21609;49.298;6.844;2023-03-19T02:58:16;18.20;50.70
35497;DHT22;21609;49.298;6.844;2023-03-19T03:00:42;18.20;50.70
35497;DHT22;21609;49.298;6.844;2023-03-19T03:03:08;18.30;50.80
35497;DHT22;21609;49.298;6.844;2023-03-19T03:05:34;18.20;50.70
35497;DHT22;21609;49.298;6.844;2023-03-19T03:08:00;18.20;50.70
35497;DHT22;21609;49.298;6.844;2023-03-19T03:10:26;18.30;50.80
35497;DHT22;21609;49.298;6.844;2023-03-19T03:12:52;18.20;50.70
35497;DHT22;21609;49.298;6.844;2023-03-19T03:15:17;18.20;50.70
35497;DHT22;21609;49.298;6.844;2023-03-19T03:17:43;18.20;50.80
35497;DHT22;21609;49.298;6.844;2023-03-19T03:20:11;18.20;50.70
35497;DHT22;21609;49.298;6.844;2023-03-19T03:22:38;18.20;50.70
35497;DHT22;21609;49.298;6.844;2023-03-19T03:25:04;18.20;50.80
35497;DHT22;21609;49.298;6.844;2023-03-19T03:27:30;18.20;50.70
35497;DHT22;21609;49.298;6.844;2023-03-19T03:29:55;18.20;50.80
35497;DHT22;21609;49.298;6.844;2023-03-19T03:32:21;18.20;50.80
35497;DHT22;21609;49.298;6.844;2023-03-19T03:34:47;18.20;50.80
35497;DHT22;21609;49.298;6.844;2023-03-19T03:37:12;18.20;50.80
35497;DHT22;21609;49.298;6.844;2023-03-19T03:39:38;18.20;50.80
35497;DHT22;21609;49.298;6.844;2023-03-19T03:42:03;18.20;50.80
35497;DHT22;21609;49.298;6.844;2023-03-19T03:44:29;18.10;50.80
35497;DHT22;21609;49.298;6.844;2023-03-19T03:46:55;18.10;50.80
35497;DHT22;21609;49.298;6.844;2023-03-19T03:49:21;18.10;50.80
35497;DHT22;21609;49.298;6.844;2023-03-19T03:51:46;18.10;50.80
35497;DHT22;21609;49.298;6.844;2023-03-19T03:54:12;18.10;50.90
35497;DHT22;21609;49.298;6.844;2023-03-19T03:56:37;18.10;50.90
35497;DHT22;21609;49.298;6.844;2023-03-19T03:59:03;18.10;50.80
35497;DHT22;21609;49.298;6.844;2023-03-19T04:01:29;18.10;50.80
35497;DHT22;21609;49.298;6.844;2023-03-19T04:03:55;18.10;50.80
35497;DHT22;21609;49.298;6.844;2023-03-19T04:06:22;18.10;50.80
35497;DHT22;21609;49.298;6.844;2023-03-19T04:08:48;18.10;50.80
35497;DHT22;21609;49.298;6.844;2023-03-19T04:11:14;18.10;50.80
35497;DHT22;21609;49.298;6.844;2023-03-19T04:13:39;18.10;50.90
35497;DHT22;21609;49.298;6.844;2023-03-19T04:16:07;18.10;50.90
35497;DHT22;21609;49.298;6.844;2023-03-19T04:18:34;18.10;50.80
35497;DHT22;21609;49.298;6.844;2023-03-19T04:20:59;18.10;50.90
35497;DHT22;21609;49.298;6.844;2023-03-19T04:23:25;18.10;50.90
35497;DHT22;21609;49.298;6.844;2023-03-19T04:25:51;18.10;50.90
35497;DHT22;21609;49.298;6.844;2023-03-19T04:28:17;18.00;50.90
35497;DHT22;21609;49.298;6.844;2023-03-19T04:30:43;18.10;51.00
35497;DHT22;21609;49.298;6.844;2023-03-19T04:33:09;18.00;50.90
35497;DHT22;21609;49.298;6.844;2023-03-19T04:35:36;18.10;50.90
35497;DHT22;21609;49.298;6.844;2023-03-19T04:38:02;18.10;50.90
35497;DHT22;21609;49.298;6.844;2023-03-19T04:40:28;18.10;50.90
35497;DHT22;21609;49.298;6.844;2023-03-19T04:42:53;18.00;50.90
35497;DHT22;21609;49.298;6.844;2023-03-19T04:45:19;18.00;50.90
35497;DHT22;21609;49.298;6.844;2023-03-19T04:47:45;18.10;51.00
35497;DHT22;21609;49.298;6.844;2023-03-19T04:50:11;18.00;50.90
35497;DHT22;21609;49.298;6.844;2023-03-19T04:52:38;18.00;50.90
35497;DHT22;21609;49.298;6.844;2023-03-19T04:55:05;18.00;50.90
35497;DHT22;21609;49.298;6.844;2023-03-19T04:57:31;18.00;50.90
35497;DHT22;21609;49.298;6.844;2023-03-19T04:59:57;18.00;50.90
35497;DHT22;21609;49.298;6.844;2023-03-19T05:02:22;18.00;51.00
35497;DHT22;21609;49.298;6.844;2023-03-19T05:04:48;18.00;51.00
35497;DHT22;21609;49.298;6.844;2023-03-19T05:07:14;18.00;50.90
35497;DHT22;21609;49.298;6.844;2023-03-19T05:09:39;18.00;51.00
35497;DHT22;21609;49.298;6.844;2023-03-19T05:12:07;18.00;50.90
35497;DHT22;21609;49.298;6.844;2023-03-19T05:14:33;18.00;51.00
35497;DHT22;21609;49.298;6.844;2023-03-19T05:16:58;18.00;51.00
35497;DHT22;21609;49.298;6.844;2023-03-19T05:19:24;18.00;51.00
35497;DHT22;21609;49.298;6.844;2023-03-19T05:21:50;18.00;51.60
35497;DHT22;21609;49.298;6.844;2023-03-19T05:24:15;18.00;51.00
35497;DHT22;21609;49.298;6.844;2023-03-19T05:26:41;17.90;50.90
35497;DHT22;21609;49.298;6.844;2023-03-19T05:29:06;17.90;51.00
35497;DHT22;21609;49.298;6.844;2023-03-19T05:31:36;17.90;50.90
35497;DHT22;21609;49.298;6.844;2023-03-19T05:34:02;18.00;51.00
35497;DHT22;21609;49.298;6.844;2023-03-19T05:36:28;17.90;50.90
35497;DHT22;21609;49.298;6.844;2023-03-19T05:38:54;18.00;51.00
35497;DHT22;21609;49.298;6.844;2023-03-19T05:41:20;17.90;50.90
35497;DHT22;21609;49.298;6.844;2023-03-19T05:43:45;17.90;50.90
35497;DHT22;21609;49.298;6.844;2023-03-19T05:46:11;18.00;51.10
35497;DHT22;21609;49.298;6.844;2023-03-19T05:48:37;18.00;51.00
35497;DHT22;21609;49.298;6.844;2023-03-19T05:51:03;18.00;51.00
35497;DHT22;21609;49.298;6.844;2023-03-19T05:53:29;17.90;51.00
35497;DHT22;21609;49.298;6.844;2023-03-19T05:55:54;17.90;51.00
35497;DHT22;21609;49.298;6.844;2023-03-19T05:58:20;17.90;51.00
35497;DHT22;21609;49.298;6.844;2023-03-19T06:00:45;17.90;51.00
35497;DHT22;21609;49.298;6.844;2023-03-19T06:03:13;17.90;51.00
35497;DHT22;21609;49.298;6.844;2023-03-19T06:05:38;17.90;51.00
35497;DHT22;21609;49.298;6.844;2023-03-19T06:08:04;17.90;51.00
35497;DHT22;21609;49.298;6.844;2023-03-19T06:10:30;17.90;51.00
35497;DHT22;21609;49.298;6.844;2023-03-19T06:12:56;17.90;51.00
35497;DHT22;21609;49.298;6.844;2023-03-19T06:15:21;17.90;51.00
35497;DHT22;21609;49.298;6.844;2023-03-19T06:17:47;17.90;51.00
35497;DHT22;21609;49.298;6.844;2023-03-19T06:20:13;17.90;51.00
35497;DHT22;21609;49.298;6.844;2023-03-19T06:22:39;17.90;51.10
35497;DHT22;21609;49.298;6.844;2023-03-19T06:25:05;17.90;51.00
35497;DHT22;21609;49.298;6.844;2023-03-19T06:27:31;17.90;51.00
35497;DHT22;21609;49.298;6.844;2023-03-19T06:29:56;17.90;51.00
35497;DHT22;21609;49.298;6.844;2023-03-19T06:32:22;17.90;51.00
35497;DHT22;21609;49.298;6.844;2023-03-19T06:34:47;17.90;51.20
35497;DHT22;21609;49.298;6.844;2023-03-19T06:37:13;17.90;51.20
35497;DHT22;21609;49.298;6.844;2023-03-19T06:39:38;17.90;51.10
35497;DHT22;21609;49.298;6.844;2023-03-19T06:42:04;17.80;51.10
35497;DHT22;21609;49.298;6.844;2023-03-19T06:44:30;17.90;51.10
35497;DHT22;21609;49.298;6.844;2023-03-19T06:46:56;17.80;51.10
35497;DHT22;21609;49.298;6.844;2023-03-19T06:49:21;17.80;51.10
35497;DHT22;21609;49.298;6.844;2023-03-19T06:51:47;17.80;51.10
35497;DHT22;21609;49.298;6.844;2023-03-19T06:54:13;17.90;51.10
35497;DHT22;21609;49.298;6.844;2023-03-19T06:56:38;17.80;51.10
35497;DHT22;21609;49.298;6.844;2023-03-19T06:59:04;17.80;51.10
35497;DHT22;21609;49.298;6.844;2023-03-19T07:01:29;17.80;51.10
35497;DHT22;21609;49.298;6.844;2023-03-19T07:03:55;17.80;51.10
35497;DHT22;21609;49.298;6.844;2023-03-19T07:06:21;17.80;51.10
35497;DHT22;21609;49.298;6.844;2023-03-19T07:08:47;17.80;51.10
35497;DHT22;21609;49.298;6.844;2023-03-19T07:11:14;17.80;51.20
35497;DHT22;21609;49.298;6.844;2023-03-19T07:13:41;17.80;51.10
35497;DHT22;21609;49.298;6.844;2023-03-19T07:16:07;17.80;51.10
35497;DHT22;21609;49.298;6.844;2023-03-19T07:18:33;17.80;51.10
35497;DHT22;21609;49.298;6.844;2023-03-19T07:20:58;17.80;51.10
35497;DHT22;21609;49.298;6.844;2023-03-19T07:23:24;17.80;51.10
35497;DHT22;21609;49.298;6.844;2023-03-19T07:25:49;17.80;51.10
35497;DHT22;21609;49.298;6.844;2023-03-19T07:28:15;17.80;51.20
35497;DHT22;21609;49.298;6.844;2023-03-19T07:30:41;17.80;51.20
35497;DHT22;21609;49.298;6.844;2023-03-19T07:33:07;17.70;51.10
35497;DHT22;21609;49.298;6.844;2023-03-19T07:35:33;17.80;51.10
35497;DHT22;21609;49.298;6.844;2023-03-19T07:37:59;17.80;51.10
35497;DHT22;21609;49.298;6.844;2023-03-19T07:40:26;17.80;51.10
35497;DHT22;21609;49.298;6.844;2023-03-19T07:42:52;17.80;51.60
35497;DHT22;21609;49.298;6.844;2023-03-19T07:45:18;17.80;51.80
35497;DHT22;21609;49.298;6.844;2023-03-19T07:47:43;17.80;51.60
35497;DHT22;21609;49.298;6.844;2023-03-19T07:50:09;17.80;52.10
35497;DHT22;21609;49.298;6.844;2023-03-19T07:52:35;17.80;51.50
35497;DHT22;21609;49.298;6.844;2023-03-19T07:55:01;17.80;51.50
35497;DHT22;21609;49.298;6.844;2023-03-19T07:57:26;17.80;51.40
35497;DHT22;21609;49.298;6.844;2023-03-19T07:59:52;17.80;51.40
35497;DHT22;21609;49.298;6.844;2023-03-19T08:02:18;17.80;51.40
35497;DHT22;21609;49.298;6.844;2023-03-19T08:04:43;17.80;51.40
35497;DHT22;21609;49.298;6.844;2023-03-19T08:07:09;17.80;51.40
35497;DHT22;21609;49.298;6.844;2023-03-19T08:09:37;17.70;51.30
35497;DHT22;21609;49.298;6.844;2023-03-19T08:12:04;17.80;51.40
35497;DHT22;21609;49.298;6.844;2023-03-19T08:14:31;17.80;51.40
35497;DHT22;21609;49.298;6.844;2023-03-19T08:16:56;17.70;51.30
35497;DHT22;21609;49.298;6.844;2023-03-19T08:19:22;17.70;51.30
35497;DHT22;21609;49.298;6.844;2023-03-19T08:21:48;17.70;51.30
35497;DHT22;21609;49.298;6.844;2023-03-19T08:24:13;17.70;51.30
35497;DHT22;21609;49.298;6.844;2023-03-19T08:26:39;17.70;51.30
35497;DHT22;21609;49.298;6.844;2023-03-19T08:29:05;17.60;51.10
35497;DHT22;21609;49.298;6.844;2023-03-19T08:31:31;17.60;51.40
35497;DHT22;21609;49.298;6.844;2023-03-19T08:33:57;17.70;51.50
35497;DHT22;21609;49.298;6.844;2023-03-19T08:36:24;17.60;51.40
35497;DHT22;21609;49.298;6.844;2023-03-19T08:38:50;17.70;51.40
35497;DHT22;21609;49.298;6.844;2023-03-19T08:41:19;17.70;52.00
35497;DHT22;21609;49.298;6.844;2023-03-19T08:43:45;17.70;51.40
35497;DHT22;21609;49.298;6.844;2023-03-19T08:46:11;17.70;51.30
35497;DHT22;21609;49.298;6.844;2023-03-19T08:48:37;17.70;51.30
35497;DHT22;21609;49.298;6.844;2023-03-19T08:51:02;17.70;51.40
35497;DHT22;21609;49.298;6.844;2023-03-19T08:53:29;17.70;51.40
35497;DHT22;21609;49.298;6.844;2023-03-19T08:55:57;17.60;51.30
35497;DHT22;21609;49.298;6.844;2023-03-19T08:58:23;17.70;51.40
35497;DHT22;21609;49.298;6.844;2023-03-19T09:00:49;17.70;51.40
35497;DHT22;21609;49.298;6.844;2023-03-19T09:03:15;17.60;51.30
35497;DHT22;21609;49.298;6.844;2023-03-19T09:05:42;17.60;51.30
35497;DHT22;21609;49.298;6.844;2023-03-19T09:08:08;17.60;51.30
35497;DHT22;21609;49.298;6.844;2023-03-19T09:10:33;17.60;51.30
35497;DHT22;21609;49.298;6.844;2023-03-19T09:12:59;17.70;51.40
35497;DHT22;21609;49.298;6.844;2023-03-19T09:15:26;17.60;51.30
35497;DHT22;21609;49.298;6.844;2023-03-19T09:17:51;17.60;51.40
35497;DHT22;21609;49.298;6.844;2023-03-19T09:20:17;17.60;51.40
35497;DHT22;21609;49.298;6.844;2023-03-19T09:22:43;17.60;51.40
35497;DHT22;21609;49.298;6.844;2023-03-19T09:25:09;17.60;51.40
35497;DHT22;21609;49.298;6.844;2023-03-19T09:27:35;17.60;51.40
35497;DHT22;21609;49.298;6.844;2023-03-19T09:30:00;17.60;51.40
35497;DHT22;21609;49.298;6.844;2023-03-19T09:32:26;17.60;51.40
35497;DHT22;21609;49.298;6.844;2023-03-19T09:34:51;17.60;51.40
35497;DHT22;21609;49.298;6.844;2023-03-19T09:37:17;17.60;51.40
35497;DHT22;21609;49.298;6.844;2023-03-19T09:39:43;17.60;51.50
35497;DHT22;21609;49.298;6.844;2023-03-19T09:42:27;17.60;51.50
35497;DHT22;21609;49.298;6.844;2023-03-19T09:44:55;17.60;51.50
35497;DHT22;21609;49.298;6.844;2023-03-19T09:47:32;17.60;51.50
35497;DHT22;21609;49.298;6.844;2023-03-19T09:50:00;17.60;51.50
35497;DHT22;21609;49.298;6.844;2023-03-19T09:57:50;17.60;51.90
35497;DHT22;21609;49.298;6.844;2023-03-19T10:00:23;17.70;51.80
35497;DHT22;21609;49.298;6.844;2023-03-19T10:05:41;17.60;51.60
35497;DHT22;21609;49.298;6.844;2023-03-19T10:11:23;17.60;51.90
35497;DHT22;21609;49.298;6.844;2023-03-19T10:13:55;17.60;51.70
35497;DHT22;21609;49.298;6.844;2023-03-19T10:16:25;17.60;51.70
35497;DHT22;21609;49.298;6.844;2023-03-19T10:18:57;17.60;51.60
35497;DHT22;21609;49.298;6.844;2023-03-19T10:21:44;17.60;51.60
35497;DHT22;21609;49.298;6.844;2023-03-19T10:24:20;17.60;51.70
35497;DHT22;21609;49.298;6.844;2023-03-19T10:26:47;17.60;51.70
35497;DHT22;21609;49.298;6.844;2023-03-19T10:29:20;17.50;51.70
35497;DHT22;21609;49.298;6.844;2023-03-19T10:34:33;17.50;51.60
35497;DHT22;21609;49.298;6.844;2023-03-19T10:37:05;17.60;51.70
35497;DHT22;21609;49.298;6.844;2023-03-19T10:39:34;17.50;51.70
35497;DHT22;21609;49.298;6.844;2023-03-19T10:44:44;17.50;51.70
35497;DHT22;21609;49.298;6.844;2023-03-19T10:47:15;17.50;51.70
35497;DHT22;21609;49.298;6.844;2023-03-19T10:49:41;17.50;51.70
35497;DHT22;21609;49.298;6.844;2023-03-19T10:54:43;17.50;51.80
35497;DHT22;21609;49.298;6.844;2023-03-19T10:57:22;17.50;51.80
35497;DHT22;21609;49.298;6.844;2023-03-19T10:59:49;17.50;51.90
35497;DHT22;21609;49.298;6.844;2023-03-19T11:02:18;17.50;51.90
35497;DHT22;21609;49.298;6.844;2023-03-19T11:04:44;17.50;51.80
35497;DHT22;21609;49.298;6.844;2023-03-19T11:07:18;17.50;51.90
35497;DHT22;21609;49.298;6.844;2023-03-19T11:09:47;17.50;51.80
35497;DHT22;21609;49.298;6.844;2023-03-19T11:12:25;17.50;51.80
35497;DHT22;21609;49.298;6.844;2023-03-19T11:14:55;17.50;51.90
35497;DHT22;21609;49.298;6.844;2023-03-19T11:17:22;17.50;51.90
35497;DHT22;21609;49.298;6.844;2023-03-19T11:19:52;17.40;51.80
35497;DHT22;21609;49.298;6.844;2023-03-19T11:22:26;17.40;51.80
35497;DHT22;21609;49.298;6.844;2023-03-19T11:24:55;17.40;51.80
35497;DHT22;21609;49.298;6.844;2023-03-19T11:27:29;17.40;51.90
35497;DHT22;21609;49.298;6.844;2023-03-19T11:29:56;17.40;51.90
35497;DHT22;21609;49.298;6.844;2023-03-19T11:35:03;17.40;51.90
35497;DHT22;21609;49.298;6.844;2023-03-19T11:37:59;17.40;51.90
35497;DHT22;21609;49.298;6.844;2023-03-19T11:48:53;17.40;52.00
35497;DHT22;21609;49.298;6.844;2023-03-19T11:51:30;17.40;52.00
35497;DHT22;21609;49.298;6.844;2023-03-19T11:54:03;17.40;52.00
35497;DHT22;21609;49.298;6.844;2023-03-19T12:02:19;17.40;52.70
35497;DHT22;21609;49.298;6.844;2023-03-19T12:05:06;17.40;52.30
35497;DHT22;21609;49.298;6.844;2023-03-19T12:07:55;17.40;52.10
35497;DHT22;21609;49.298;6.844;2023-03-19T12:22:07;17.40;52.10
35497;DHT22;21609;49.298;6.844;2023-03-19T12:27:59;17.50;52.20
35497;DHT22;21609;49.298;6.844;2023-03-19T12:30:40;17.50;52.20
35497;DHT22;21609;49.298;6.844;2023-03-19T12:33:45;17.50;52.10
35497;DHT22;21609;49.298;6.844;2023-03-19T12:36:18;17.50;52.20
35497;DHT22;21609;49.298;6.844;2023-03-19T12:38:50;17.50;52.20
35497;DHT22;21609;49.298;6.844;2023-03-19T12:49:13;17.60;52.20
35497;DHT22;21609;49.298;6.844;2023-03-19T12:51:45;17.50;52.20
35497;DHT22;21609;49.298;6.844;2023-03-19T12:54:22;17.50;52.20
35497;DHT22;21609;49.298;6.844;2023-03-19T12:59:59;17.50;52.30
35497;DHT22;21609;49.298;6.844;2023-03-19T13:02:34;17.60;52.40
35497;DHT22;21609;49.298;6.844;2023-03-19T13:05:30;17.50;52.30
35497;DHT22;21609;49.298;6.844;2023-03-19T13:08:27;17.50;52.30
35497;DHT22;21609;49.298;6.844;2023-03-19T13:10:55;17.50;52.30
35497;DHT22;21609;49.298;6.844;2023-03-19T13:15:55;17.50;52.30
35497;DHT22;21609;49.298;6.844;2023-03-19T13:21:21;17.50;52.30
35497;DHT22;21609;49.298;6.844;2023-03-19T13:26:24;17.50;52.30
35497;DHT22;21609;49.298;6.844;2023-03-19T13:29:06;17.50;52.20
35497;DHT22;21609;49.298;6.844;2023-03-19T13:31:34;17.50;52.30
35497;DHT22;21609;49.298;6.844;2023-03-19T13:34:07;17.50;52.20
35497;DHT22;21609;49.298;6.844;2023-03-19T13:36:44;17.50;52.20
35497;DHT22;21609;49.298;6.844;2023-03-19T13:39:15;17.50;52.20
35497;DHT22;21609;49.298;6.844;2023-03-19T13:46:55;17.50;52.30
35497;DHT22;21609;49.298;6.844;2023-03-19T13:49:26;17.50;52.20
35497;DHT22;21609;49.298;6.844;2023-03-19T13:54:43;17.60;52.30
35497;DHT22;21609;49.298;6.844;2023-03-19T13:59:39;17.90;52.00
35497;DHT22;21609;49.298;6.844;2023-03-19T14:05:15;18.00;51.90
35497;DHT22;21609;49.298;6.844;2023-03-19T14:07:51;18.10;51.70
35497;DHT22;21609;49.298;6.844;2023-03-19T14:10:24;18.20;51.50
35497;DHT22;21609;49.298;6.844;2023-03-19T14:13:00;18.30;51.50
35497;DHT22;21609;49.298;6.844;2023-03-19T14:15:27;18.40;51.50
35497;DHT22;21609;49.298;6.844;2023-03-19T14:18:01;18.40;51.40
35497;DHT22;21609;49.298;6.844;2023-03-19T14:20:33;18.40;51.50
35497;DHT22;21609;49.298;6.844;2023-03-19T14:26:04;18.40;51.60
35497;DHT22;21609;49.298;6.844;2023-03-19T14:31:02;18.50;51.70
35497;DHT22;21609;49.298;6.844;2023-03-19T14:33:43;18.60;51.70
35497;DHT22;21609;49.298;6.844;2023-03-19T14:36:16;18.60;51.80
35497;DHT22;21609;49.298;6.844;2023-03-19T14:41:36;18.60;51.70
35497;DHT22;21609;49.298;6.844;2023-03-19T14:49:41;18.70;51.60
35497;DHT22;21609;49.298;6.844;2023-03-19T14:52:22;18.80;51.60
35497;DHT22;21609;49.298;6.844;2023-03-19T14:54:59;18.80;51.50
35497;DHT22;21609;49.298;6.844;2023-03-19T14:57:28;19.00;51.40
35497;DHT22;21609;49.298;6.844;2023-03-19T14:59:55;19.00;51.40
35497;DHT22;21609;49.298;6.844;2023-03-19T15:02:39;19.20;51.40
35497;DHT22;21609;49.298;6.844;2023-03-19T15:05:08;19.30;51.30
35497;DHT22;21609;49.298;6.844;2023-03-19T15:07:42;19.50;50.90
35497;DHT22;21609;49.298;6.844;2023-03-19T15:10:16;19.60;50.70
35497;DHT22;21609;49.298;6.844;2023-03-19T15:12:54;19.70;50.60
35497;DHT22;21609;49.298;6.844;2023-03-19T15:18:07;19.80;50.20
35497;DHT22;21609;49.298;6.844;2023-03-19T15:20:42;19.80;50.20
35497;DHT22;21609;49.298;6.844;2023-03-19T15:23:11;19.90;50.30
35497;DHT22;21609;49.298;6.844;2023-03-19T15:25:46;20.00;50.10
35497;DHT22;21609;49.298;6.844;2023-03-19T15:28:14;20.20;50.00
35497;DHT22;21609;49.298;6.844;2023-03-19T15:30:40;20.20;50.30
35497;DHT22;21609;49.298;6.844;2023-03-19T15:33:23;20.20;49.80
35497;DHT22;21609;49.298;6.844;2023-03-19T15:35:56;20.20;49.50
35497;DHT22;21609;49.298;6.844;2023-03-19T15:38:25;20.20;49.60
35497;DHT22;21609;49.298;6.844;2023-03-19T15:40:52;20.20;49.70
35497;DHT22;21609;49.298;6.844;2023-03-19T15:43:18;20.20;49.60
35497;DHT22;21609;49.298;6.844;2023-03-19T15:45:46;20.30;49.60
35497;DHT22;21609;49.298;6.844;2023-03-19T15:48:25;20.30;49.50
35497;DHT22;21609;49.298;6.844;2023-03-19T15:50:59;20.30;49.50
35497;DHT22;21609;49.298;6.844;2023-03-19T15:53:29;20.30;49.40
35497;DHT22;21609;49.298;6.844;2023-03-19T15:55:56;20.30;49.50
35497;DHT22;21609;49.298;6.844;2023-03-19T15:58:24;20.40;49.50
35497;DHT22;21609;49.298;6.844;2023-03-19T16:00:52;20.40;49.60
35497;DHT22;21609;49.298;6.844;2023-03-19T16:03:26;20.50;49.50
35497;DHT22;21609;49.298;6.844;2023-03-19T16:06:04;20.40;49.50
35497;DHT22;21609;49.298;6.844;2023-03-19T16:08:31;20.40;49.40
35497;DHT22;21609;49.298;6.844;2023-03-19T16:11:13;20.40;49.50
35497;DHT22;21609;49.298;6.844;2023-03-19T16:13:40;20.40;50.00
35497;DHT22;21609;49.298;6.844;2023-03-19T16:16:19;20.40;49.50
35497;DHT22;21609;49.298;6.844;2023-03-19T16:18:54;20.40;49.60
35497;DHT22;21609;49.298;6.844;2023-03-19T16:21:21;20.40;49.40
35497;DHT22;21609;49.298;6.844;2023-03-19T16:23:51;20.40;49.50
35497;DHT22;21609;49.298;6.844;2023-03-19T16:26:23;20.40;49.40
35497;DHT22;21609;49.298;6.844;2023-03-19T16:31:30;20.40;49.40
35497;DHT22;21609;49.298;6.844;2023-03-19T16:33:58;20.40;49.50
35497;DHT22;21609;49.298;6.844;2023-03-19T16:36:27;20.50;49.60
35497;DHT22;21609;49.298;6.844;2023-03-19T16:39:19;20.50;49.60
35497;DHT22;21609;49.298;6.844;2023-03-19T16:44:33;20.50;49.50
35497;DHT22;21609;49.298;6.844;2023-03-19T16:46:58;20.40;49.50
35497;DHT22;21609;49.298;6.844;2023-03-19T16:49:24;20.40;49.40
35497;DHT22;21609;49.298;6.844;2023-03-19T16:51:50;20.40;49.40
35497;DHT22;21609;49.298;6.844;2023-03-19T16:54:16;20.40;49.40
35497;DHT22;21609;49.298;6.844;2023-03-19T16:56:42;20.40;49.50
35497;DHT22;21609;49.298;6.844;2023-03-19T16:59:15;20.40;49.40
35497;DHT22;21609;49.298;6.844;2023-03-19T17:01:43;20.40;49.50
35497;DHT22;21609;49.298;6.844;2023-03-19T17:04:12;20.40;49.50
35497;DHT22;21609;49.298;6.844;2023-03-19T17:06:42;20.40;49.40
35497;DHT22;21609;49.298;6.844;2023-03-19T17:09:07;20.40;49.50
35497;DHT22;21609;49.298;6.844;2023-03-19T17:11:35;20.40;49.60
35497;DHT22;21609;49.298;6.844;2023-03-19T17:14:02;20.40;49.60
35497;DHT22;21609;49.298;6.844;2023-03-19T17:16:30;20.40;49.40
35497;DHT22;21609;49.298;6.844;2023-03-19T17:18:56;20.40;49.40
35497;DHT22;21609;49.298;6.844;2023-03-19T17:21:30;20.40;49.40
35497;DHT22;21609;49.298;6.844;2023-03-19T17:23:56;20.40;49.40
35497;DHT22;21609;49.298;6.844;2023-03-19T17:26:24;20.40;49.50